Time;durP1;ratioP1;P1;durP2;ratioP2;P2;SDS_P1;SDS_P2;PMS_P1;PMS_P2;Temp;Humidity;BMP_temperature;BMP_pressure;BME280_temperature;BME280_humidity;BME280_pressure;Samples;Min_cycle;Max_cycle;Signal;HPM_P1;HPM_P2
2022/11/20 00:00:12;;;;;;;17.40;6.53;;;;;;;-4.22;100.00;100755.56;6023447;28;20105;-65
2022/11/20 00:03:07;;;;;;;17.65;7.05;;;;;;;-4.05;100.00;100771.34;6023440;28;20290;-65
2022/11/20 00:06:05;;;;;;;17.07;6.17;;;;;;;-3.92;100.00;100767.47;6023774;28;20042;-65
2022/11/20 00:09:01;;;;;;;20.05;6.32;;;;;;;-4.01;100.00;100762.59;6023706;28;20031;-64
2022/11/20 00:11:56;;;;;;;21.00;6.65;;;;;;;-4.10;100.00;100772.44;6023237;28;20035;-65
2022/11/20 00:14:51;;;;;;;20.83;6.00;;;;;;;-3.96;100.00;100771.03;6023838;28;20433;-65
2022/11/20 00:17:47;;;;;;;20.40;7.67;;;;;;;-3.74;100.00;100751.25;6023937;28;20023;-65
2022/11/20 00:20:42;;;;;;;18.60;6.37;;;;;;;-3.74;100.00;100760.75;6023003;28;20551;-65
2022/11/20 00:23:37;;;;;;;15.37;6.50;;;;;;;-3.96;100.00;100752.91;6023344;28;20121;-66
2022/11/20 00:26:33;;;;;;;18.17;6.17;;;;;;;-4.09;100.00;100748.22;6023861;28;20022;-65
2022/11/20 00:29:28;;;;;;;19.38;6.78;;;;;;;-4.17;100.00;100764.03;6023149;28;20026;-66
2022/11/20 00:32:24;;;;;;;15.32;5.57;;;;;;;-4.34;100.00;100758.56;6023058;28;20119;-66
2022/11/20 00:35:19;;;;;;;19.57;6.77;;;;;;;-4.29;100.00;100761.84;6023063;28;20042;-66
2022/11/20 00:38:14;;;;;;;15.47;5.77;;;;;;;-4.22;100.00;100759.00;6022919;28;20081;-64
2022/11/20 00:41:12;;;;;;;19.37;7.20;;;;;;;-4.30;100.00;100755.00;6022543;28;20417;-64
2022/11/20 00:44:07;;;;;;;16.92;6.22;;;;;;;-4.32;100.00;100756.78;6022724;28;20035;-64
2022/11/20 00:47:04;;;;;;;16.70;6.47;;;;;;;-4.27;100.00;100740.19;6022945;28;20027;-65
2022/11/20 00:49:59;;;;;;;21.98;7.32;;;;;;;-4.35;100.00;100746.53;6023207;28;20033;-66
2022/11/20 00:52:54;;;;;;;20.13;7.23;;;;;;;-4.31;100.00;100738.63;6022145;28;20034;-66
2022/11/20 00:55:58;;;;;;;17.70;6.63;;;;;;;-4.34;100.00;100756.81;6023233;28;20470;-65
2022/11/20 00:58:54;;;;;;;15.35;5.78;;;;;;;-4.33;100.00;100760.25;6022445;28;20130;-63
2022/11/20 01:01:49;;;;;;;16.13;6.25;;;;;;;-4.21;100.00;100773.63;6022337;28;20062;-63
2022/11/20 01:04:45;;;;;;;15.63;5.90;;;;;;;-4.19;100.00;100752.03;6022673;28;20425;-66
2022/11/20 01:07:40;;;;;;;16.20;5.53;;;;;;;-4.11;100.00;100730.16;6022323;28;20030;-65
2022/11/20 01:10:36;;;;;;;15.20;6.40;;;;;;;-4.05;100.00;100740.28;6021912;28;20117;-64
2022/11/20 01:13:38;;;;;;;16.63;5.75;;;;;;;-4.03;100.00;100722.97;6022172;28;20018;-64
2022/11/20 01:16:34;;;;;;;;;;;;;;;-3.93;100.00;100739.88;6019001;28;20145;-65
2022/11/20 01:19:30;;;;;;;12.75;5.18;;;;;;;-3.91;100.00;100732.88;6022695;28;20390;-66
2022/11/20 01:22:25;;;;;;;13.20;5.43;;;;;;;-3.64;100.00;100721.50;6022128;28;20045;-64
2022/11/20 01:25:20;;;;;;;18.60;6.93;;;;;;;-3.66;100.00;100738.88;6021995;28;20049;-64
2022/11/20 01:28:16;;;;;;;16.80;6.47;;;;;;;-3.83;100.00;100720.50;6021870;28;20108;-64
2022/11/20 01:31:21;;;;;;;17.13;7.50;;;;;;;-3.98;100.00;100725.38;6021939;28;20505;-64
2022/11/20 01:34:18;;;;;;;16.05;6.43;;;;;;;-4.02;100.00;100722.06;6022253;28;20034;-64
2022/11/20 01:37:13;;;;;;;15.98;6.65;;;;;;;-4.11;100.00;100724.13;6022405;28;20461;-65
2022/11/20 01:40:09;;;;;;;15.93;5.83;;;;;;;-4.14;100.00;100725.09;6021694;28;20034;-65
2022/11/20 01:43:22;;;;;;;16.90;6.30;;;;;;;-4.02;100.00;100719.47;6021968;28;20649;-65
2022/11/20 01:46:18;;;;;;;18.17;6.10;;;;;;;-3.83;100.00;100709.31;6021907;28;20050;-64
2022/11/20 01:49:21;;;;;;;13.95;6.22;;;;;;;-3.75;100.00;100713.28;6021983;28;20154;-65
2022/11/20 01:52:26;;;;;;;17.63;6.95;;;;;;;-3.77;100.00;100701.28;6020167;28;20438;-64
2022/11/20 01:55:26;;;;;;;13.52;5.25;;;;;;;-3.36;100.00;100700.59;6021922;28;20046;-65
2022/11/20 01:58:26;;;;;;;15.57;6.82;;;;;;;-3.22;100.00;100705.25;6021767;28;20034;-64
2022/11/20 02:01:21;;;;;;;16.27;6.95;;;;;;;-3.35;100.00;100691.94;6020306;28;20053;-64
2022/11/20 02:04:17;;;;;;;21.27;5.63;;;;;;;-3.29;100.00;100711.59;6022294;28;20030;-65
2022/11/20 02:07:13;;;;;;;19.08;6.18;;;;;;;-3.33;100.00;100704.81;6022027;28;20026;-64
2022/11/20 02:10:08;;;;;;;17.95;6.47;;;;;;;-3.42;100.00;100705.16;6020934;28;20034;-64
2022/11/20 02:16:39;;;;;;;17.52;6.60;;;;;;;-3.46;100.00;100698.41;6019699;28;20038;-64
2022/11/20 02:19:34;;;;;;;18.05;6.80;;;;;;;-3.58;100.00;100689.34;6020456;28;20030;-64
2022/11/20 02:22:54;;;;;;;18.48;5.57;;;;;;;-3.67;100.00;100689.72;6019831;28;20026;-64
2022/11/20 02:25:50;;;;;;;17.30;6.78;;;;;;;-3.55;100.00;100693.56;6020910;28;20037;-65
2022/11/20 02:28:45;;;;;;;13.07;4.85;;;;;;;-3.27;100.00;100697.66;6025150;28;20036;-64
2022/11/20 02:31:42;;;;;;;14.97;5.13;;;;;;;-3.40;100.00;100687.81;6026224;28;20058;-64
2022/11/20 02:34:37;;;;;;;14.30;4.70;;;;;;;-3.52;100.00;100673.59;6024418;28;20034;-65
2022/11/20 02:37:34;;;;;;;13.50;5.87;;;;;;;-3.38;100.00;100688.59;6025666;28;20366;-65
2022/11/20 02:40:29;;;;;;;14.70;6.18;;;;;;;-3.34;100.00;100691.00;6023826;28;20153;-65
2022/11/20 02:43:25;;;;;;;16.50;5.80;;;;;;;-3.38;100.00;100665.28;6025926;28;20030;-65
2022/11/20 02:46:20;;;;;;;14.07;5.10;;;;;;;-3.15;100.00;100681.59;6026026;28;20030;-64
2022/11/20 02:49:16;;;;;;;16.20;5.57;;;;;;;-3.28;100.00;100684.75;6024885;28;20034;-64
2022/11/20 02:52:11;;;;;;;15.68;5.22;;;;;;;-3.38;100.00;100660.94;6025401;28;20118;-65
2022/11/20 02:55:07;;;;;;;15.53;6.00;;;;;;;-3.39;100.00;100679.97;6025845;28;20034;-64
2022/11/20 02:58:02;;;;;;;15.23;5.40;;;;;;;-3.21;100.00;100657.69;6024821;28;20026;-65
2022/11/20 03:00:57;;;;;;;16.88;5.80;;;;;;;-3.39;100.00;100666.16;6024882;28;20529;-64
2022/11/20 03:03:54;;;;;;;16.50;6.30;;;;;;;-3.56;100.00;100655.63;6025335;28;20037;-65
2022/11/20 03:06:49;;;;;;;11.27;5.03;;;;;;;-3.48;100.00;100669.13;6025224;28;20049;-65
2022/11/20 03:09:45;;;;;;;12.23;5.23;;;;;;;-3.57;100.00;100653.94;6025162;28;20042;-64
2022/11/20 03:12:40;;;;;;;19.03;6.97;;;;;;;-3.44;100.00;100666.34;6024709;28;20493;-64
2022/11/20 03:15:36;;;;;;;17.47;6.30;;;;;;;-3.26;100.00;100659.63;6025596;28;20034;-64
2022/11/20 03:18:32;;;;;;;15.70;6.05;;;;;;;-3.63;100.00;100650.69;6024983;28;20071;-64
2022/11/20 03:21:27;;;;;;;16.90;6.60;;;;;;;-2.82;100.00;100666.44;6024747;28;20626;-63
2022/11/20 03:24:23;;;;;;;15.63;5.87;;;;;;;-3.38;100.00;100662.69;6024706;28;20284;-63
2022/11/20 03:27:18;;;;;;;12.82;5.75;;;;;;;-3.62;100.00;100667.91;6025040;28;20030;-63
2022/11/20 03:30:14;;;;;;;15.60;6.77;;;;;;;-3.71;100.00;100668.25;6024118;28;20069;-64
2022/11/20 03:33:09;;;;;;;15.75;5.32;;;;;;;-3.68;100.00;100655.19;6024708;28;20034;-64
2022/11/20 03:36:08;;;;;;;17.27;5.20;;;;;;;-3.79;100.00;100669.44;6024828;28;20048;-64
2022/11/20 03:39:03;;;;;;;11.70;5.55;;;;;;;-3.59;100.00;100650.56;6024058;28;20022;-64
2022/11/20 03:41:59;;;;;;;14.13;5.33;;;;;;;-3.92;100.00;100648.34;6023973;28;20386;-63
2022/11/20 03:44:54;;;;;;;14.77;5.67;;;;;;;-3.82;100.00;100665.22;6024714;28;20639;-64
2022/11/20 03:47:49;;;;;;;15.95;6.25;;;;;;;-3.48;100.00;100653.59;6023682;28;20038;-63
2022/11/20 03:50:47;;;;;;;14.00;5.23;;;;;;;-3.31;100.00;100645.97;6023560;28;20026;-65
2022/11/20 03:53:43;;;;;;;15.32;5.13;;;;;;;-3.32;100.00;100655.53;6024348;28;20669;-64
2022/11/20 03:56:39;;;;;;;17.35;5.40;;;;;;;-3.68;100.00;100659.53;6024045;28;20390;-64
2022/11/20 03:59:34;;;;;;;12.75;5.80;;;;;;;-3.67;100.00;100649.09;6023926;28;20038;-64
2022/11/20 04:02:30;;;;;;;14.20;5.37;;;;;;;-3.11;100.00;100646.03;6023814;28;20034;-63
2022/11/20 04:05:25;;;;;;;16.27;6.45;;;;;;;-3.31;100.00;100651.16;6024360;28;20497;-64
2022/11/20 04:08:20;;;;;;;14.60;6.33;;;;;;;-3.56;100.00;100642.69;6023787;28;20038;-64
2022/11/20 04:11:17;;;;;;;14.80;5.87;;;;;;;-3.50;100.00;100645.00;6023610;28;20037;-64
2022/11/20 04:14:14;;;;;;;16.15;5.72;;;;;;;-3.67;100.00;100645.69;6023603;28;20038;-63
2022/11/20 04:17:09;;;;;;;15.82;5.35;;;;;;;-3.76;100.00;100627.88;6023767;28;20113;-64
2022/11/20 04:20:05;;;;;;;15.17;4.73;;;;;;;-3.76;100.00;100622.72;6023165;28;20033;-65
2022/11/20 04:23:00;;;;;;;12.85;5.03;;;;;;;-3.65;100.00;100636.09;6023536;28;20026;-64
2022/11/20 04:26:08;;;;;;;15.20;6.00;;;;;;;-3.66;100.00;100630.06;6024023;28;20042;-64
2022/11/20 04:29:03;;;;;;;14.25;5.20;;;;;;;-3.61;100.00;100628.13;6022633;28;20022;-64
2022/11/20 04:31:58;;;;;;;18.48;5.53;;;;;;;-3.73;100.00;100620.84;6023003;28;20548;-64
2022/11/20 04:34:54;;;;;;;14.17;4.50;;;;;;;-3.70;100.00;100623.34;6023613;28;20030;-64
2022/11/20 04:37:51;;;;;;;13.90;5.60;;;;;;;-3.73;100.00;100628.63;6023197;28;20076;-64
2022/11/20 04:40:47;;;;;;;13.13;5.07;;;;;;;-3.66;100.00;100624.03;6022449;28;20023;-64
2022/11/20 04:43:47;;;;;;;16.67;5.70;;;;;;;-3.63;100.00;100619.59;6023177;28;20049;-64
2022/11/20 04:46:42;;;;;;;12.18;4.50;;;;;;;-3.48;100.00;100618.16;6022886;28;20042;-66
2022/11/20 04:49:37;;;;;;;16.35;5.18;;;;;;;-3.52;100.00;100615.72;6022752;28;20108;-64
2022/11/20 04:52:33;;;;;;;12.80;4.57;;;;;;;-3.63;100.00;100610.97;6022544;28;20423;-64
2022/11/20 04:55:28;;;;;;;10.90;4.67;;;;;;;-3.64;100.00;100606.69;6023216;28;20066;-63
2022/11/20 04:58:23;;;;;;;14.67;4.50;;;;;;;-3.55;100.00;100608.91;6022694;28;20045;-64
2022/11/20 05:01:21;;;;;;;14.93;4.53;;;;;;;-3.48;100.00;100618.16;6022361;28;20034;-64
2022/11/20 05:04:17;;;;;;;8.48;3.88;;;;;;;-3.48;100.00;100581.03;6022790;28;20049;-64
2022/11/20 05:07:12;;;;;;;10.25;4.25;;;;;;;-3.29;100.00;100600.94;6022568;28;20113;-63
2022/11/20 05:10:08;;;;;;;11.93;4.73;;;;;;;-3.32;99.27;100588.13;6022090;28;20061;-64
2022/11/20 05:13:03;;;;;;;12.68;4.20;;;;;;;-3.19;99.05;100604.88;6022649;28;20042;-65
2022/11/20 05:16:09;;;;;;;14.43;4.77;;;;;;;-3.18;98.86;100605.72;6023147;28;20042;-64
2022/11/20 05:19:05;;;;;;;10.43;4.68;;;;;;;-3.34;98.81;100604.66;6022406;28;20019;-63
2022/11/20 05:22:00;;;;;;;13.97;4.87;;;;;;;-3.30;98.24;100606.19;6021595;28;20035;-64
2022/11/20 05:24:55;;;;;;;10.30;3.97;;;;;;;-3.32;98.67;100613.19;6022137;28;20109;-63
2022/11/20 05:27:51;;;;;;;13.03;5.30;;;;;;;-3.29;98.69;100623.44;6017911;28;20038;-62
2022/11/20 05:30:46;;;;;;;16.00;4.93;;;;;;;-3.25;99.03;100617.22;6021710;28;20406;-64
2022/11/20 05:33:43;;;;;;;15.00;4.90;;;;;;;-3.25;99.75;100615.47;6018903;28;20081;-64
2022/11/20 05:36:38;;;;;;;15.98;4.95;;;;;;;-3.26;99.45;100606.00;6042146;28;70076;-63
2022/11/20 05:39:34;;;;;;;12.48;4.78;;;;;;;-3.12;99.03;100610.63;6046249;28;20089;-64
2022/11/20 05:42:32;;;;;;;12.17;4.23;;;;;;;-3.29;98.66;100597.53;6042178;28;20359;-64
2022/11/20 05:45:28;;;;;;;7.63;3.47;;;;;;;-3.24;98.73;100588.66;6045973;28;20030;-64
2022/11/20 05:48:23;;;;;;;13.82;4.07;;;;;;;-3.15;98.72;100590.84;6045660;28;20072;-65
2022/11/20 05:51:19;;;;;;;10.10;4.17;;;;;;;-3.09;98.34;100600.13;6045069;28;20485;-64
2022/11/20 05:54:14;;;;;;;9.27;4.53;;;;;;;-3.04;97.89;100591.25;6041802;28;20621;-64
2022/11/20 05:57:10;;;;;;;13.13;4.65;;;;;;;-3.11;96.48;100586.41;6045591;28;20037;-63
2022/11/20 06:00:06;;;;;;;15.65;4.53;;;;;;;-2.63;97.64;100594.69;6045264;28;20037;-63
2022/11/20 06:03:01;;;;;;;10.73;4.07;;;;;;;-2.77;96.74;100584.06;6048546;28;20073;-65
2022/11/20 06:05:59;;;;;;;10.27;4.03;;;;;;;-2.79;96.91;100578.09;6050388;28;20043;-65
2022/11/20 06:08:55;;;;;;;12.23;4.22;;;;;;;-2.90;96.04;100588.09;6050135;28;20139;-65
2022/11/20 06:11:50;;;;;;;12.77;4.07;;;;;;;-2.81;96.35;100585.13;6049403;28;20486;-65
2022/11/20 06:14:45;;;;;;;11.50;4.43;;;;;;;-2.73;96.31;100593.41;6050562;28;20038;-65
2022/11/20 06:17:40;;;;;;;9.13;4.17;;;;;;;-2.67;96.48;100590.56;6050342;28;20037;-64
2022/11/20 06:20:36;;;;;;;11.20;4.07;;;;;;;-2.76;95.99;100569.34;6049691;28;20116;-64
2022/11/20 06:23:33;;;;;;;10.90;4.03;;;;;;;-2.76;95.03;100582.31;6048883;28;20092;-64
2022/11/20 06:26:30;;;;;;;9.52;3.70;;;;;;;-2.93;94.37;100570.06;6049153;28;20534;-65
2022/11/20 06:29:25;;;;;;;12.80;4.30;;;;;;;-2.80;94.36;100583.38;6049762;28;20030;-65
2022/11/20 06:32:20;;;;;;;10.63;4.00;;;;;;;-2.85;94.40;100580.94;6049151;28;20033;-65
2022/11/20 06:35:15;;;;;;;8.57;3.67;;;;;;;-2.72;94.93;100582.13;6049958;28;20037;-65
2022/11/20 06:38:11;;;;;;;10.23;3.70;;;;;;;-2.74;94.27;100588.28;6049581;28;20111;-65
2022/11/20 06:41:08;;;;;;;9.60;3.97;;;;;;;-2.89;94.34;100571.63;6049227;28;20081;-65
2022/11/20 06:44:05;;;;;;;7.57;3.75;;;;;;;-2.93;94.01;100577.84;6048103;28;20385;-65
2022/11/20 06:47:00;;;;;;;11.35;4.45;;;;;;;-2.98;94.15;100564.22;6049372;28;20037;-65
2022/11/20 06:49:56;;;;;;;12.38;3.70;;;;;;;-2.86;94.48;100576.69;6049458;28;20306;-63
2022/11/20 06:52:51;;;;;;;11.33;3.87;;;;;;;-2.90;94.50;100562.16;6048766;28;20401;-65
2022/11/20 06:55:47;;;;;;;10.60;4.47;;;;;;;-2.86;94.44;100566.31;6049728;28;20030;-65
2022/11/20 06:58:43;;;;;;;11.30;4.15;;;;;;;-2.81;94.63;100568.72;6049120;28;20554;-65
2022/11/20 07:01:38;;;;;;;9.10;3.60;;;;;;;-2.94;93.79;100563.22;6047929;28;20042;-64
2022/11/20 07:04:34;;;;;;;7.40;3.45;;;;;;;-2.82;94.29;100565.25;6049301;28;20740;-65
2022/11/20 07:07:29;;;;;;;9.90;4.00;;;;;;;-2.84;94.89;100567.09;6048388;28;20045;-64
2022/11/20 07:10:25;;;;;;;10.00;4.00;;;;;;;-2.59;96.03;100559.94;6046463;28;20064;-65
2022/11/20 07:13:20;;;;;;;11.90;4.30;;;;;;;-2.76;95.67;100562.41;6048594;28;20748;-65
2022/11/20 07:16:16;;;;;;;11.57;4.65;;;;;;;-2.77;95.69;100571.09;6048708;28;20033;-64
2022/11/20 07:19:11;;;;;;;11.20;4.15;;;;;;;-2.87;95.60;100564.63;6049050;28;20065;-65
2022/11/20 07:22:07;;;;;;;8.27;3.73;;;;;;;-2.54;95.69;100580.47;6042630;28;20050;-65
2022/11/20 07:25:03;;;;;;;10.70;4.30;;;;;;;-2.59;96.25;100572.06;6045778;28;20885;-64
2022/11/20 07:27:59;;;;;;;10.18;3.83;;;;;;;-2.75;96.84;100558.91;6032882;28;20113;-63
2022/11/20 07:30:54;;;;;;;10.18;4.20;;;;;;;-2.75;96.35;100552.88;6047576;28;20493;-65
2022/11/20 07:33:49;;;;;;;10.47;4.00;;;;;;;-2.73;96.06;100553.66;6043692;28;20121;-65
2022/11/20 07:36:45;;;;;;;11.00;4.55;;;;;;;-2.76;95.96;100549.44;6048269;28;20269;-64
2022/11/20 07:39:40;;;;;;;10.03;4.60;;;;;;;-2.62;96.23;100561.81;6042893;28;20034;-64
2022/11/20 07:42:35;;;;;;;10.27;3.93;;;;;;;-2.70;95.58;100562.16;6046226;28;20057;-65
2022/11/20 07:45:31;;;;;;;8.83;4.00;;;;;;;-2.55;96.06;100565.81;6048099;28;20428;-65
2022/11/20 07:48:26;;;;;;;13.43;4.73;;;;;;;-2.50;95.86;100554.31;6048249;28;20034;-65
2022/11/20 07:51:21;;;;;;;13.60;5.57;;;;;;;-2.61;95.24;100556.53;6046934;28;20034;-64
2022/11/20 07:54:17;;;;;;;13.05;4.50;;;;;;;-2.48;94.39;100567.25;6048053;28;20257;-65
2022/11/20 07:57:12;;;;;;;13.00;4.80;;;;;;;-2.42;94.46;100573.00;6048232;28;20378;-64
2022/11/20 08:00:10;;;;;;;10.18;4.88;;;;;;;-2.54;94.76;100568.34;6045502;28;20065;-66
2022/11/20 08:03:05;;;;;;;13.45;3.75;;;;;;;-2.43;94.64;100573.06;6038860;28;20073;-65
2022/11/20 08:06:01;;;;;;;9.73;4.22;;;;;;;-2.41;93.48;100579.88;6047626;28;20041;-66
2022/11/20 08:08:57;;;;;;;11.18;4.38;;;;;;;-2.41;93.80;100584.22;6047818;28;20037;-66
2022/11/20 08:15:07;;;;;;;11.50;4.90;;;;;;;-2.46;93.25;100568.00;6047684;28;20257;-67
2022/11/20 08:18:04;;;;;;;10.52;3.85;;;;;;;-2.41;93.52;100584.22;6046563;28;20037;-65
2022/11/20 08:21:04;;;;;;;10.45;4.28;;;;;;;-2.46;93.19;100571.47;6046292;28;20038;-65
2022/11/20 08:23:59;;;;;;;10.05;4.07;;;;;;;-2.33;93.62;100586.47;6036359;28;20033;-65
2022/11/20 08:26:58;;;;;;;9.65;4.45;;;;;;;-2.29;94.07;100582.84;6046942;28;20025;-64
2022/11/20 08:29:53;;;;;;;9.68;3.83;;;;;;;-2.30;93.60;100565.56;6047496;28;20520;-64
2022/11/20 08:32:48;;;;;;;9.67;4.17;;;;;;;-2.35;93.16;100575.31;6046692;28;20033;-64
2022/11/20 08:35:44;;;;;;;9.27;4.30;;;;;;;-2.38;92.43;100552.94;6046961;28;20041;-65
2022/11/20 08:38:39;;;;;;;10.43;4.32;;;;;;;-2.29;92.29;100572.47;6046761;28;20037;-64
2022/11/20 08:41:36;;;;;;;9.30;3.83;;;;;;;-2.24;92.19;100557.50;6046247;28;20053;-65
2022/11/20 08:44:31;;;;;;;12.18;4.95;;;;;;;-2.21;92.01;100552.19;6047047;28;20026;-64
2022/11/20 08:47:27;;;;;;;10.65;3.92;;;;;;;-2.06;91.14;100565.31;6046477;28;20125;-65
2022/11/20 08:50:22;;;;;;;10.37;4.73;;;;;;;-2.03;91.15;100564.31;6046530;28;20038;-64
2022/11/20 08:53:18;;;;;;;13.37;5.30;;;;;;;-1.95;90.59;100573.44;6047081;28;20026;-64
2022/11/20 08:56:13;;;;;;;10.83;4.60;;;;;;;-1.97;90.72;100569.22;6046611;28;20573;-64
2022/11/20 08:59:08;;;;;;;11.93;4.87;;;;;;;-1.90;89.31;100565.44;6046098;28;20038;-65
2022/11/20 09:02:03;;;;;;;8.87;3.60;;;;;;;-1.76;90.33;100560.44;6045887;28;20025;-64
2022/11/20 09:04:59;;;;;;;12.40;4.23;;;;;;;-1.72;88.69;100559.38;6045490;28;20073;-66
2022/11/20 09:07:58;;;;;;;7.87;4.00;;;;;;;-1.65;88.64;100565.13;6046108;28;20376;-65
2022/11/20 09:10:54;;;;;;;12.20;4.75;;;;;;;-1.60;88.04;100558.78;6045522;28;20281;-65
2022/11/20 09:13:50;;;;;;;10.60;5.00;;;;;;;-1.48;88.59;100558.22;6046470;28;20030;-64
2022/11/20 09:16:46;;;;;;;11.15;4.07;;;;;;;-1.43;88.62;100566.63;6046573;28;20038;-65
2022/11/20 09:19:41;;;;;;;10.52;4.75;;;;;;;-1.42;88.39;100557.91;6045543;28;20034;-65
2022/11/20 09:22:39;;;;;;;11.07;5.20;;;;;;;-1.35;87.17;100569.69;6045739;28;20084;-66
2022/11/20 09:25:35;;;;;;;10.68;4.25;;;;;;;-1.28;87.88;100565.06;6046077;28;20521;-66
2022/11/20 09:28:31;;;;;;;11.43;3.90;;;;;;;-1.34;86.52;100550.59;6045608;28;20042;-65
2022/11/20 09:31:26;;;;;;;10.43;4.65;;;;;;;-1.31;87.70;100540.03;6045300;28;20119;-66
2022/11/20 09:34:21;;;;;;;11.93;4.40;;;;;;;-1.20;86.55;100555.94;6046137;28;20033;-66
2022/11/20 09:37:17;;;;;;;11.90;4.70;;;;;;;-1.13;86.73;100555.63;6045942;28;20030;-66
2022/11/20 09:40:24;;;;;;;16.07;6.87;;;;;;;-1.15;86.79;100540.13;6045544;28;20481;-66
2022/11/20 09:43:48;;;;;;;11.90;5.28;;;;;;;-1.04;87.06;100547.38;6044986;28;20037;-65
2022/11/20 09:46:53;;;;;;;11.38;4.63;;;;;;;-1.12;85.82;100523.50;6045575;28;20458;-66
2022/11/20 09:49:57;;;;;;;14.48;5.07;;;;;;;-1.14;85.58;100530.56;6043850;28;20523;-66
2022/11/20 09:52:58;;;;;;;13.63;5.15;;;;;;;-1.18;86.04;100529.00;6044042;28;20073;-66
2022/11/20 09:55:54;;;;;;;;;;;;;;;-1.13;86.04;100545.22;6046199;28;20038;-66
2022/11/20 09:58:51;;;;;;;9.45;4.03;;;;;;;-1.04;86.35;100529.16;6044344;28;20380;-67
2022/11/20 10:01:47;;;;;;;13.30;4.80;;;;;;;-0.72;85.30;100529.19;6045293;28;20099;-68
2022/11/20 10:04:48;;;;;;;14.32;5.15;;;;;;;-0.39;83.42;100534.41;6045852;28;20033;-68
2022/11/20 10:07:55;;;;;;;10.80;4.80;;;;;;;-0.12;83.27;100545.94;6044592;28;20042;-68
2022/11/20 10:11:00;;;;;;;14.07;5.40;;;;;;;-0.03;82.71;100535.00;6044303;28;20033;-69
2022/11/20 10:14:06;;;;;;;11.07;4.20;;;;;;;0.11;80.56;100538.66;6045610;28;20461;-68
2022/11/20 10:17:27;;;;;;;11.30;4.82;;;;;;;0.23;80.70;100537.97;6044137;28;20060;-68
2022/11/20 10:20:45;;;;;;;11.35;4.82;;;;;;;0.29;78.53;100521.97;6044911;28;20045;-68
2022/11/20 10:24:02;;;;;;;12.00;5.15;;;;;;;0.22;79.84;100523.25;6045386;28;20025;-68
2022/11/20 10:27:25;;;;;;;24.55;9.10;;;;;;;0.19;78.46;100528.63;6046003;28;20033;-68
2022/11/20 10:30:24;;;;;;;9.50;3.83;;;;;;;-0.08;78.41;100516.19;6043546;28;20034;-68
2022/11/20 10:33:22;;;;;;;11.40;4.88;;;;;;;-0.22;77.73;100531.72;6042704;28;20033;-67
2022/11/20 10:36:25;;;;;;;11.30;4.88;;;;;;;-0.36;79.55;100518.63;6045124;28;20458;-68
2022/11/20 10:39:50;;;;;;;11.18;5.07;;;;;;;-0.24;79.13;100519.69;6045114;28;20042;-68
2022/11/20 10:43:02;;;;;;;10.00;5.03;;;;;;;-0.31;79.81;100508.78;6043216;28;20478;-68
2022/11/20 10:46:08;;;;;;;15.43;5.28;;;;;;;-0.33;81.10;100517.59;6045223;28;20413;-68
2022/11/20 10:49:10;;;;;;;11.20;5.15;;;;;;;-0.48;81.40;100511.44;6046175;28;20038;-68
2022/11/20 10:52:33;;;;;;;11.40;4.63;;;;;;;-0.42;80.90;100511.13;6047962;28;20462;-68
2022/11/20 10:55:45;;;;;;;9.95;4.13;;;;;;;-0.24;81.18;100510.13;6048448;28;20116;-68
2022/11/20 10:58:44;;;;;;;11.13;4.38;;;;;;;-0.06;79.79;100522.19;6048044;28;20034;-68
2022/11/20 11:01:41;;;;;;;11.82;4.20;;;;;;;0.08;79.06;100511.00;6048854;28;20022;-68
2022/11/20 11:04:40;;;;;;;9.95;4.72;;;;;;;-0.14;79.14;100492.25;6049002;28;20033;-67
2022/11/20 11:07:38;;;;;;;10.48;4.25;;;;;;;-0.17;79.82;100493.25;6047829;28;20153;-68
2022/11/20 11:10:46;;;;;;;14.65;5.43;;;;;;;-0.06;79.03;100497.88;6047713;28;20121;-68
2022/11/20 11:13:41;;;;;;;10.80;4.28;;;;;;;-0.02;79.57;100497.63;6048942;28;20092;-68
2022/11/20 11:16:49;;;;;;;10.07;3.80;;;;;;;0.07;78.71;100487.59;6049219;28;20533;-68
2022/11/20 11:19:44;;;;;;;13.32;5.50;;;;;;;0.10;78.81;100492.66;6048795;28;20462;-68
2022/11/20 11:22:49;;;;;;;11.70;4.80;;;;;;;0.25;77.11;100504.81;6048170;28;20092;-68
2022/11/20 11:25:57;;;;;;;10.63;4.25;;;;;;;0.37;76.76;100491.09;6047976;28;20038;-68
2022/11/20 11:29:05;;;;;;;15.25;4.75;;;;;;;0.42;76.88;100491.66;6043232;28;20068;-65
2022/11/20 11:32:14;;;;;;;11.27;4.97;;;;;;;0.39;76.37;100484.03;6047713;28;20032;-68
2022/11/20 11:35:23;;;;;;;12.27;4.80;;;;;;;0.21;77.28;100477.25;6048517;28;20030;-68
2022/11/20 11:38:27;;;;;;;12.48;5.93;;;;;;;0.27;77.92;100480.31;6047487;28;20023;-68
2022/11/20 11:41:25;;;;;;;9.25;4.18;;;;;;;0.22;78.64;100481.53;6046638;28;20505;-68
2022/11/20 11:47:41;;;;;;;15.48;4.95;;;;;;;0.59;77.28;100486.34;6046001;28;20033;-68
2022/11/20 11:50:36;;;;;;;9.93;4.53;;;;;;;0.55;76.84;100479.59;6046583;28;20034;-69
2022/11/20 11:53:33;;;;;;;9.43;4.23;;;;;;;0.64;77.84;100476.47;6047283;28;20488;-68
2022/11/20 11:56:28;;;;;;;11.93;5.68;;;;;;;0.56;76.98;100476.06;6046707;28;20030;-68
2022/11/20 11:59:57;;;;;;;15.77;5.28;;;;;;;0.62;75.95;100474.88;6046653;28;20496;-68
2022/11/20 12:03:03;;;;;;;14.00;5.75;;;;;;;0.54;77.21;100462.28;6038328;28;20084;-68
2022/11/20 12:06:02;;;;;;;12.70;5.22;;;;;;;0.55;77.77;100461.34;6047439;28;20032;-67
2022/11/20 12:09:05;;;;;;;12.98;5.38;;;;;;;0.56;77.26;100476.91;6046038;28;20045;-68
2022/11/20 12:12:15;;;;;;;10.32;4.43;;;;;;;0.48;78.42;100471.31;6045346;28;20046;-68
2022/11/20 12:15:12;;;;;;;12.05;4.85;;;;;;;0.50;78.07;100460.78;6044745;28;20137;-69
2022/11/20 12:18:16;;;;;;;10.95;4.88;;;;;;;0.44;77.40;100461.13;6037530;28;20029;-68
2022/11/20 12:21:20;;;;;;;11.05;4.47;;;;;;;0.43;77.89;100462.91;6044616;28;20131;-68
2022/11/20 12:24:31;;;;;;;14.68;5.35;;;;;;;0.46;77.27;100467.94;6046748;28;20470;-68
2022/11/20 12:27:51;;;;;;;14.50;6.60;;;;;;;0.48;79.15;100462.63;6046463;28;20549;-68
2022/11/20 12:31:09;;;;;;;12.77;4.93;;;;;;;0.49;78.54;100443.47;6035887;28;20037;-68
2022/11/20 12:34:32;;;;;;;11.82;4.40;;;;;;;0.44;78.66;100463.72;6045858;28;20366;-68
2022/11/20 12:37:36;;;;;;;16.40;6.00;;;;;;;0.56;78.97;100469.09;6054479;28;20072;-69
2022/11/20 12:40:31;;;;;;;13.43;4.82;;;;;;;0.46;79.67;100464.50;6043866;28;20129;-68
2022/11/20 12:47:00;;;;;;;14.40;5.13;;;;;;;0.65;80.45;100449.47;6045258;28;20034;-69
2022/11/20 12:50:02;;;;;;;8.73;4.32;;;;;;;0.69;80.57;100450.94;6054106;28;20041;-68
2022/11/20 12:53:05;;;;;;;12.63;5.05;;;;;;;0.76;79.62;100448.81;6035232;28;20027;-69
2022/11/20 12:56:24;;;;;;;11.13;5.10;;;;;;;0.81;79.77;100439.78;6044563;28;20044;-68
2022/11/20 12:59:41;;;;;;;11.15;4.50;;;;;;;0.72;79.50;100445.56;6046363;28;20029;-69
2022/11/20 13:02:48;;;;;;;10.88;4.68;;;;;;;0.71;80.26;100450.88;6045160;28;20042;-69
2022/11/20 13:05:50;;;;;;;11.13;5.93;;;;;;;0.48;81.41;100442.63;6045674;28;20140;-68
2022/11/20 13:08:54;;;;;;;14.15;5.25;;;;;;;0.45;81.69;100440.19;6045832;28;20065;-69
2022/11/20 13:12:11;;;;;;;12.98;5.97;;;;;;;0.44;81.12;100455.91;6044504;28;20033;-68
2022/11/20 13:15:28;;;;;;;13.85;5.72;;;;;;;0.49;81.25;100449.50;6046395;28;20442;-68
2022/11/20 13:18:24;;;;;;;11.18;5.00;;;;;;;0.45;82.07;100444.56;6045831;28;20088;-68
2022/11/20 13:21:23;;;;;;;11.95;5.88;;;;;;;0.40;81.38;100447.44;6044624;28;20541;-68
2022/11/20 13:24:18;;;;;;;14.93;5.68;;;;;;;0.46;82.14;100444.44;6044931;28;20042;-68
2022/11/20 13:27:14;;;;;;;12.70;4.23;;;;;;;0.34;83.20;100449.53;6046000;28;20357;-68
2022/11/20 13:30:17;;;;;;;11.25;5.32;;;;;;;0.37;83.63;100449.38;6045676;28;20053;-70
2022/11/20 13:33:33;;;;;;;10.00;4.68;;;;;;;0.37;83.98;100446.75;6043861;28;20459;-66
2022/11/20 13:36:30;;;;;;;8.88;4.47;;;;;;;0.31;85.03;100449.72;6046820;28;20116;-67
2022/11/20 13:39:26;;;;;;;12.30;4.95;;;;;;;0.37;85.39;100449.38;6046231;28;20026;-69
2022/11/20 13:42:27;;;;;;;14.18;5.00;;;;;;;0.29;84.80;100430.72;6045567;28;20037;-68
2022/11/20 13:45:26;;;;;;;14.55;5.47;;;;;;;0.23;84.52;100438.88;6045995;28;20058;-68
2022/11/20 13:48:24;;;;;;;15.32;6.00;;;;;;;0.18;85.26;100433.09;6044899;28;20061;-68
2022/11/20 13:51:25;;;;;;;15.95;5.07;;;;;;;0.31;84.70;100436.69;6044399;28;20038;-68
2022/11/20 13:54:26;;;;;;;;;;;;;;;0.23;84.39;100431.06;6045793;28;20092;-67